createdAt,value
2018-12-11T00:01:19.503Z,13.17
2018-12-11T00:03:47.874Z,13.57
2018-12-11T00:06:16.207Z,9.10
2018-12-11T00:08:44.600Z,9.03
2018-12-11T00:11:12.897Z,10.90
2018-12-11T00:13:41.170Z,12.30
2018-12-11T00:16:09.506Z,12.13
2018-12-11T00:18:37.757Z,10.80
2018-12-11T00:21:06.217Z,9.50
2018-12-11T00:23:34.493Z,11.97
2018-12-11T00:26:02.829Z,11.23
2018-12-11T00:28:37.621Z,11.07
2018-12-11T00:31:05.925Z,13.63
2018-12-11T00:33:34.604Z,11.30
2018-12-11T00:36:03.094Z,10.47
2018-12-11T00:38:31.779Z,18.90
2018-12-11T00:41:00.314Z,11.23
2018-12-11T00:43:28.827Z,9.50
2018-12-11T00:45:57.085Z,9.83
2018-12-11T00:48:25.411Z,11.67
2018-12-11T00:50:53.688Z,14.43
2018-12-11T00:53:22.050Z,10.60
2018-12-11T00:55:50.326Z,11.00
2018-12-11T00:58:18.804Z,10.77
2018-12-11T01:00:47.180Z,13.40
2018-12-11T01:03:15.407Z,8.43
2018-12-11T01:05:43.771Z,9.63
2018-12-11T01:08:12.029Z,11.63
2018-12-11T01:10:40.513Z,9.57
2018-12-11T01:13:08.938Z,9.63
2018-12-11T01:15:37.461Z,12.83
2018-12-11T01:18:05.950Z,12.77
2018-12-11T01:20:34.247Z,9.90
2018-12-11T01:23:02.598Z,10.27
2018-12-11T01:25:30.915Z,13.50
2018-12-11T01:27:59.345Z,12.00
2018-12-11T01:30:27.647Z,12.70
2018-12-11T01:33:02.623Z,15.20
2018-12-11T01:35:30.863Z,9.67
2018-12-11T01:37:59.287Z,12.37
2018-12-11T01:40:27.591Z,16.17
2018-12-11T01:42:55.845Z,10.80
2018-12-11T01:45:24.197Z,12.10
2018-12-11T01:47:52.727Z,14.53
2018-12-11T01:50:21.007Z,9.70
2018-12-11T01:52:49.347Z,14.30
2018-12-11T01:55:17.687Z,10.33
2018-12-11T01:57:45.938Z,18.80
2018-12-11T02:00:14.268Z,14.50
2018-12-11T02:02:42.587Z,15.87
2018-12-11T02:05:10.922Z,18.13
2018-12-11T02:07:39.194Z,12.27
2018-12-11T02:10:07.753Z,13.83
2018-12-11T02:12:36.112Z,16.47
2018-12-11T02:15:05.634Z,16.70
2018-12-11T02:17:33.906Z,13.40
2018-12-11T02:20:02.278Z,11.17
2018-12-11T02:22:30.662Z,13.03
2018-12-11T02:24:58.936Z,14.70
2018-12-11T02:27:27.173Z,14.90
2018-12-11T02:29:55.483Z,11.43
2018-12-11T02:32:23.807Z,17.07
2018-12-11T02:34:52.166Z,16.80
2018-12-11T02:37:20.413Z,13.90
2018-12-11T02:39:48.904Z,14.50
2018-12-11T02:42:17.227Z,16.17
2018-12-11T02:44:45.572Z,16.73
2018-12-11T02:47:14.572Z,10.63
2018-12-11T02:49:42.851Z,11.60
2018-12-11T02:52:11.215Z,14.53
2018-12-11T02:54:39.520Z,16.93
2018-12-11T02:57:08.032Z,15.50
2018-12-11T02:59:36.570Z,17.90
2018-12-11T03:02:06.617Z,13.23
2018-12-11T03:04:35.419Z,18.10
2018-12-11T03:07:03.755Z,12.30
2018-12-11T03:09:32.271Z,14.33
2018-12-11T03:12:00.661Z,18.33
2018-12-11T03:14:29.304Z,17.50
2018-12-11T03:16:59.039Z,14.53
2018-12-11T03:19:27.363Z,13.87
2018-12-11T03:21:55.628Z,11.37
2018-12-11T03:24:30.460Z,14.83
2018-12-11T03:26:59.062Z,12.70
2018-12-11T03:29:27.433Z,13.70
2018-12-11T03:31:55.827Z,14.43
2018-12-11T03:34:24.163Z,13.90
2018-12-11T03:36:52.472Z,11.90
2018-12-11T03:39:20.861Z,16.77
2018-12-11T03:41:49.236Z,17.77
2018-12-11T03:44:17.510Z,19.23
2018-12-11T03:46:45.920Z,11.47
2018-12-11T03:49:14.290Z,15.37
2018-12-11T03:51:55.429Z,16.60
2018-12-11T03:54:23.776Z,16.10
2018-12-11T03:56:51.987Z,13.10
2018-12-11T03:59:20.283Z,14.10
2018-12-11T04:01:48.536Z,12.53
2018-12-11T04:04:16.911Z,9.70
2018-12-11T04:06:45.347Z,13.90
2018-12-11T04:09:13.671Z,12.20
2018-12-11T04:11:42.258Z,12.60
2018-12-11T04:14:10.569Z,18.43
2018-12-11T04:16:38.812Z,18.70
2018-12-11T04:19:07.157Z,20.87
2018-12-11T04:21:35.484Z,11.70
2018-12-11T04:24:03.840Z,13.67
2018-12-11T04:26:32.156Z,15.37
2018-12-11T04:29:00.419Z,14.43
2018-12-11T04:31:29.248Z,19.87
2018-12-11T04:33:57.527Z,15.97
2018-12-11T04:36:25.987Z,15.03
2018-12-11T04:38:54.320Z,9.63
2018-12-11T04:41:22.644Z,10.70
2018-12-11T04:43:51.357Z,15.90
2018-12-11T04:46:19.659Z,15.37
2018-12-11T04:48:48.243Z,12.13
2018-12-11T04:51:16.518Z,14.30
2018-12-11T04:53:44.868Z,13.00
2018-12-11T04:56:13.210Z,13.47
2018-12-11T04:58:41.515Z,16.80
2018-12-11T05:01:09.997Z,16.30
2018-12-11T05:03:39.466Z,13.97
2018-12-11T05:06:07.790Z,10.80
2018-12-11T05:08:36.120Z,9.90
2018-12-11T05:11:04.406Z,10.00
2018-12-11T05:13:32.708Z,10.33
2018-12-11T05:16:00.958Z,10.37
2018-12-11T05:18:29.306Z,9.20
2018-12-11T05:20:57.964Z,7.37
2018-12-11T05:23:26.852Z,11.03
2018-12-11T05:25:55.144Z,10.50
2018-12-11T05:28:23.465Z,10.00
2018-12-11T05:30:51.752Z,11.17
2018-12-11T05:33:20.111Z,10.33
2018-12-11T05:35:48.637Z,10.43
2018-12-11T05:38:16.878Z,10.77
2018-12-11T05:40:45.158Z,8.40
2018-12-11T05:43:13.442Z,13.03
2018-12-11T05:45:41.813Z,8.57
2018-12-11T05:48:10.265Z,11.17
2018-12-11T05:50:38.498Z,11.70
2018-12-11T05:53:07.114Z,8.43
2018-12-11T05:55:35.361Z,8.20
2018-12-11T05:58:03.824Z,12.07
2018-12-11T06:00:32.092Z,8.97
2018-12-11T06:03:00.429Z,8.10
2018-12-11T06:05:28.728Z,12.03
2018-12-11T06:07:57.039Z,7.57
2018-12-11T06:10:25.323Z,11.53
2018-12-11T06:12:53.533Z,10.63
2018-12-11T06:15:21.790Z,12.17
2018-12-11T06:17:50.530Z,8.70
2018-12-11T06:20:18.734Z,11.30
2018-12-11T06:22:47.474Z,10.30
2018-12-11T06:25:15.749Z,10.83
2018-12-11T06:27:44.174Z,6.70
2018-12-11T06:30:12.511Z,8.47
2018-12-11T06:32:40.861Z,7.63
2018-12-11T06:35:09.409Z,9.50
2018-12-11T06:37:37.644Z,6.83
2018-12-11T06:40:06.789Z,6.80
2018-12-11T06:42:35.628Z,9.50
2018-12-11T06:45:04.326Z,6.20
2018-12-11T06:47:33.009Z,9.90
2018-12-11T06:50:01.353Z,9.00
2018-12-11T06:52:30.015Z,5.10
2018-12-11T06:54:58.275Z,9.60
2018-12-11T06:57:26.574Z,7.63
2018-12-11T06:59:54.927Z,5.70
2018-12-11T07:02:23.261Z,9.17
2018-12-11T07:04:51.805Z,4.63
2018-12-11T07:07:20.189Z,5.43
2018-12-11T07:09:48.448Z,7.83
2018-12-11T07:12:16.877Z,3.97
2018-12-11T07:14:45.207Z,8.17
2018-12-11T07:17:13.648Z,8.57
2018-12-11T07:19:42.032Z,7.63
2018-12-11T07:22:10.393Z,5.20
2018-12-11T07:24:38.670Z,3.13
2018-12-11T07:27:07.023Z,4.20
2018-12-11T07:29:35.525Z,4.70
2018-12-11T07:32:04.582Z,3.47
2018-12-11T07:34:32.977Z,5.10
2018-12-11T07:37:01.408Z,2.93
2018-12-11T07:39:30.093Z,3.63
2018-12-11T07:41:58.588Z,2.97
2018-12-11T07:44:26.918Z,4.37
2018-12-11T07:46:55.158Z,3.20
2018-12-11T07:49:24.316Z,3.33
2018-12-11T07:51:52.708Z,2.80
2018-12-11T07:54:20.931Z,5.07
2018-12-11T07:56:51.107Z,4.87
2018-12-11T07:59:20.140Z,2.57
2018-12-11T08:01:49.331Z,3.20
2018-12-11T08:04:18.188Z,2.50
2018-12-11T08:06:46.739Z,3.17
2018-12-11T08:09:16.063Z,3.07
2018-12-11T08:11:45.348Z,3.33
2018-12-11T08:14:13.699Z,3.67
2018-12-11T08:16:42.121Z,3.37
2018-12-11T08:19:10.966Z,3.67
2018-12-11T08:21:39.326Z,5.90
2018-12-11T08:24:07.917Z,7.97
2018-12-11T08:26:36.227Z,8.67
2018-12-11T08:29:04.602Z,4.37
2018-12-11T08:31:33.088Z,3.77
2018-12-11T08:34:02.565Z,8.67
2018-12-11T08:36:30.866Z,4.83
2018-12-11T08:38:59.212Z,4.83
2018-12-11T08:41:27.831Z,3.40
2018-12-11T08:43:56.259Z,4.17
2018-12-11T08:46:24.627Z,5.40
2018-12-11T08:48:53.200Z,2.70
2018-12-11T08:51:24.585Z,6.50
2018-12-11T08:54:15.538Z,4.77
2018-12-11T08:56:44.219Z,3.27
2018-12-11T08:59:12.867Z,2.90
2018-12-11T09:01:41.134Z,5.67
2018-12-11T09:04:09.953Z,3.83
2018-12-11T09:06:38.309Z,4.63
2018-12-11T09:09:07.475Z,4.30
2018-12-11T09:11:35.819Z,5.93
2018-12-11T09:14:04.269Z,4.30
2018-12-11T09:16:32.609Z,3.90
2018-12-11T09:19:01.125Z,5.90
2018-12-11T09:21:29.415Z,3.37
2018-12-11T09:23:58.009Z,5.37
2018-12-11T09:26:26.495Z,6.23
2018-12-11T09:28:54.883Z,4.43
2018-12-11T09:31:23.420Z,3.07
2018-12-11T09:33:52.783Z,7.07
2018-12-11T09:36:21.142Z,2.40
2018-12-11T09:38:49.727Z,2.03
2018-12-11T09:41:18.491Z,1.70
2018-12-11T09:43:46.781Z,3.20
2018-12-11T09:46:15.094Z,1.60
2018-12-11T09:48:43.342Z,1.80
2018-12-11T09:51:17.643Z,1.80
2018-12-11T09:53:41.952Z,2.37
2018-12-11T09:56:10.299Z,2.30
2018-12-11T09:58:38.737Z,2.23
2018-12-11T10:01:07.114Z,1.50
2018-12-11T10:03:35.519Z,6.57
2018-12-11T10:06:04.135Z,3.03
2018-12-11T10:08:32.566Z,2.63
2018-12-11T10:11:01.303Z,1.40
2018-12-11T10:13:29.758Z,1.50
2018-12-11T10:15:58.152Z,2.67
2018-12-11T10:18:26.646Z,2.30
2018-12-11T10:20:55.115Z,2.03
2018-12-11T10:23:23.922Z,3.13
2018-12-11T10:25:52.465Z,2.23
2018-12-11T10:28:20.875Z,2.80
2018-12-11T10:30:49.474Z,1.90
2018-12-11T10:33:17.948Z,4.90
2018-12-11T10:35:46.382Z,2.00
2018-12-11T10:38:14.712Z,2.20
2018-12-11T10:40:43.136Z,2.50
2018-12-11T10:43:11.703Z,2.33
2018-12-11T10:45:40.191Z,3.83
2018-12-11T10:48:08.583Z,1.83
2018-12-11T10:50:37.104Z,1.80
2018-12-11T10:53:05.522Z,2.30
2018-12-11T10:55:33.970Z,2.33
2018-12-11T10:58:02.450Z,2.40
2018-12-11T11:01:37.979Z,2.73
2018-12-11T11:04:06.377Z,1.90
2018-12-11T11:06:34.635Z,2.40
2018-12-11T11:09:03.732Z,1.70
2018-12-11T11:11:32.110Z,11.33
2018-12-11T11:14:00.492Z,3.57
2018-12-11T11:16:28.786Z,2.67
2018-12-11T11:18:57.146Z,2.20
2018-12-11T11:21:25.488Z,2.17
2018-12-11T11:23:53.874Z,1.70
2018-12-11T11:26:22.216Z,2.50
2018-12-11T11:28:50.638Z,2.37
2018-12-11T11:31:18.955Z,1.80
2018-12-11T11:33:47.422Z,1.60
2018-12-11T11:36:15.820Z,3.30
2018-12-11T11:38:44.308Z,2.10
2018-12-11T11:41:12.708Z,2.47
2018-12-11T11:43:49.708Z,1.97
2018-12-11T11:46:18.346Z,2.10
2018-12-11T11:48:46.635Z,20.90
2018-12-11T11:51:15.052Z,4.57
2018-12-11T11:53:43.279Z,2.33
2018-12-11T11:56:12.575Z,2.10
2018-12-11T11:58:42.134Z,1.87
2018-12-11T12:01:11.156Z,3.00
2018-12-11T12:03:39.587Z,2.20
2018-12-11T12:06:07.973Z,3.03
2018-12-11T12:08:36.554Z,2.07
2018-12-11T12:11:04.922Z,3.40
2018-12-11T12:13:33.491Z,2.33
2018-12-11T12:16:01.883Z,3.00
2018-12-11T12:18:30.267Z,4.13
2018-12-11T12:20:58.603Z,2.17
2018-12-11T12:23:27.129Z,3.30
2018-12-11T12:25:55.617Z,3.37
2018-12-11T12:28:23.997Z,2.73
2018-12-11T12:30:53.271Z,3.40
2018-12-11T12:33:22.061Z,3.00
2018-12-11T12:35:50.517Z,3.00
2018-12-11T12:38:18.919Z,3.30
2018-12-11T12:40:47.301Z,4.43
2018-12-11T12:43:16.892Z,3.53
2018-12-11T12:45:45.418Z,2.87
2018-12-11T12:48:13.985Z,4.57
2018-12-11T12:50:42.657Z,2.23
2018-12-11T12:53:11.005Z,4.23
2018-12-11T12:55:39.680Z,3.20
2018-12-11T12:58:08.140Z,5.10
2018-12-11T13:00:36.768Z,10.37
2018-12-11T13:03:05.275Z,5.93
2018-12-11T13:05:33.651Z,9.37
2018-12-11T13:08:02.181Z,5.17
2018-12-11T13:10:30.560Z,3.47
2018-12-11T13:12:59.241Z,5.37
2018-12-11T13:15:27.991Z,7.87
2018-12-11T13:17:56.618Z,4.70
2018-12-11T13:20:24.893Z,6.60
2018-12-11T13:22:53.125Z,5.27
2018-12-11T13:25:21.556Z,4.77
2018-12-11T13:27:50.081Z,4.13
2018-12-11T13:30:18.800Z,4.47
2018-12-11T13:32:47.099Z,6.00
2018-12-11T13:35:15.581Z,5.10
2018-12-11T13:37:43.957Z,6.00
2018-12-11T13:40:12.380Z,6.40
2018-12-11T13:42:40.899Z,5.17
2018-12-11T13:45:09.828Z,5.20
2018-12-11T13:47:39.067Z,7.87
2018-12-11T13:50:07.959Z,6.47
2018-12-11T13:52:36.288Z,11.03
2018-12-11T13:55:04.825Z,5.33
2018-12-11T13:57:33.368Z,11.07
2018-12-11T14:00:01.804Z,7.60
2018-12-11T14:02:30.263Z,7.50
2018-12-11T14:04:58.725Z,11.37
2018-12-11T14:07:27.165Z,7.50
2018-12-11T14:09:55.565Z,5.93
2018-12-11T14:12:23.881Z,5.00
2018-12-11T14:14:52.288Z,7.60
2018-12-11T14:17:20.878Z,4.53
2018-12-11T14:19:49.274Z,7.80
2018-12-11T14:22:18.341Z,8.00
2018-12-11T14:24:47.013Z,5.77
2018-12-11T14:27:15.871Z,3.50
2018-12-11T14:29:44.361Z,5.13
2018-12-11T14:32:12.957Z,5.13
2018-12-11T14:34:41.453Z,7.73
2018-12-11T14:37:10.141Z,5.37
2018-12-11T14:39:38.522Z,6.67
2018-12-11T14:42:06.962Z,5.00
2018-12-11T14:44:35.382Z,5.27
2018-12-11T14:47:03.983Z,4.73
2018-12-11T14:49:32.444Z,3.93
2018-12-11T14:52:01.156Z,5.83
2018-12-11T14:54:29.586Z,7.07
2018-12-11T14:56:57.955Z,5.57
2018-12-11T14:59:26.358Z,3.90
2018-12-11T15:01:54.735Z,4.63
2018-12-11T15:04:23.321Z,4.00
2018-12-11T15:06:51.948Z,5.00
2018-12-11T15:09:25.598Z,6.33
2018-12-11T15:11:54.037Z,9.00
2018-12-11T15:14:22.342Z,3.40
2018-12-11T15:16:50.817Z,5.37
2018-12-11T15:19:19.858Z,6.60
2018-12-11T15:21:48.765Z,4.07
2018-12-11T15:24:17.583Z,4.97
2018-12-11T15:26:45.986Z,4.30
2018-12-11T15:29:14.439Z,5.37
2018-12-11T15:31:42.745Z,4.77
2018-12-11T15:34:11.199Z,5.43
2018-12-11T15:36:39.767Z,5.37
2018-12-11T15:39:08.279Z,7.07
2018-12-11T15:41:37.851Z,4.07
2018-12-11T15:44:06.503Z,3.77
2018-12-11T15:46:35.071Z,3.80
2018-12-11T15:49:03.471Z,6.47
2018-12-11T15:51:31.820Z,4.60
2018-12-11T15:54:00.129Z,4.90
2018-12-11T15:56:28.707Z,4.10
2018-12-11T15:58:57.211Z,3.40
2018-12-11T16:01:25.679Z,4.07
2018-12-11T16:03:54.170Z,4.07
2018-12-11T16:06:22.647Z,4.10
2018-12-11T16:08:51.120Z,3.87
2018-12-11T16:11:19.429Z,3.97
2018-12-11T16:13:47.922Z,3.20
2018-12-11T16:16:16.311Z,3.93
2018-12-11T16:18:44.809Z,3.23
2018-12-11T16:21:13.186Z,3.00
2018-12-11T16:23:41.726Z,3.90
2018-12-11T16:26:10.175Z,3.40
2018-12-11T16:28:38.520Z,3.10
2018-12-11T16:31:07.047Z,3.10
2018-12-11T16:33:35.748Z,3.27
2018-12-11T16:36:04.176Z,3.50
2018-12-11T16:38:32.666Z,3.40
2018-12-11T16:41:01.032Z,6.57
2018-12-11T16:43:29.619Z,3.63
2018-12-11T16:45:58.737Z,4.60
2018-12-11T16:48:27.211Z,4.13
2018-12-11T16:50:55.625Z,3.97
2018-12-11T16:53:23.975Z,3.97
2018-12-11T16:55:52.369Z,3.30
2018-12-11T16:58:20.744Z,2.97
2018-12-11T17:00:49.043Z,5.00
2018-12-11T17:03:17.564Z,5.80
2018-12-11T17:05:46.010Z,4.93
2018-12-11T17:08:14.353Z,3.80
2018-12-11T17:10:44.215Z,3.77
2018-12-11T17:13:12.722Z,3.77
2018-12-11T17:15:41.368Z,3.73
2018-12-11T17:18:09.888Z,3.00
2018-12-11T17:20:38.955Z,2.97
2018-12-11T17:23:07.410Z,3.50
2018-12-11T17:25:36.419Z,3.03
2018-12-11T17:28:04.865Z,3.57
2018-12-11T17:30:33.328Z,3.83
2018-12-11T17:33:01.645Z,4.60
2018-12-11T17:35:30.765Z,3.93
2018-12-11T17:37:59.165Z,3.63
2018-12-11T17:40:27.727Z,4.93
2018-12-11T17:42:56.287Z,3.20
2018-12-11T17:45:25.048Z,3.53
2018-12-11T17:47:53.596Z,5.20
2018-12-11T17:50:22.005Z,5.47
2018-12-11T17:52:50.548Z,4.17
2018-12-11T17:55:18.928Z,4.57
2018-12-11T17:57:49.197Z,5.17
2018-12-11T18:00:18.098Z,3.67
2018-12-11T18:02:46.579Z,5.67
2018-12-11T18:05:15.535Z,4.87
2018-12-11T18:07:44.615Z,4.80
2018-12-11T18:10:13.043Z,5.07
2018-12-11T18:12:42.408Z,4.20
2018-12-11T18:15:11.234Z,3.60
2018-12-11T18:17:40.526Z,5.13
2018-12-11T18:20:09.361Z,3.80
2018-12-11T18:22:38.151Z,3.83
2018-12-11T18:25:06.542Z,4.17
2018-12-11T18:27:34.959Z,3.33
2018-12-11T18:30:03.787Z,3.47
2018-12-11T18:32:32.191Z,3.70
2018-12-11T18:35:01.587Z,3.47
2018-12-11T18:37:29.874Z,3.60
2018-12-11T18:39:59.519Z,3.50
2018-12-11T18:42:27.940Z,3.63
2018-12-11T18:45:02.991Z,3.27
2018-12-11T18:47:27.118Z,3.40
2018-12-11T18:49:55.458Z,3.70
2018-12-11T18:52:23.766Z,3.33
2018-12-11T18:54:52.050Z,3.53
2018-12-11T18:57:20.398Z,3.93
2018-12-11T18:59:48.746Z,3.50
2018-12-11T19:02:17.187Z,3.10
2018-12-11T19:04:45.558Z,3.77
2018-12-11T19:07:14.099Z,3.50
2018-12-11T19:09:42.671Z,3.37
2018-12-11T19:12:11.138Z,3.30
2018-12-11T19:14:39.585Z,3.30
2018-12-11T19:17:08.169Z,3.40
2018-12-11T19:19:36.630Z,3.47
2018-12-11T19:22:05.186Z,3.20
2018-12-11T19:24:42.470Z,3.50
2018-12-11T19:27:11.033Z,5.03
2018-12-11T19:29:39.540Z,3.00
2018-12-11T19:32:08.045Z,3.30
2018-12-11T19:34:36.577Z,3.30
2018-12-11T19:37:05.256Z,3.43
2018-12-11T19:39:33.795Z,3.17
2018-12-11T19:42:02.483Z,3.77
2018-12-11T19:44:31.141Z,3.20
2018-12-11T19:46:59.669Z,3.33
2018-12-11T19:49:28.105Z,3.30
2018-12-11T19:51:57.403Z,3.30
2018-12-11T19:54:25.945Z,3.27
2018-12-11T19:56:54.700Z,4.17
2018-12-11T19:59:23.278Z,2.87
2018-12-11T20:01:51.904Z,3.27
2018-12-11T20:04:23.149Z,2.87
2018-12-11T20:06:53.452Z,3.23
2018-12-11T20:09:22.025Z,3.10
2018-12-11T20:11:50.634Z,3.60
2018-12-11T20:14:19.317Z,2.73
2018-12-11T20:16:47.820Z,3.13
2018-12-11T20:19:17.122Z,3.40
2018-12-11T20:21:46.144Z,4.57
2018-12-11T20:24:15.985Z,5.50
2018-12-11T20:26:45.939Z,4.93
2018-12-11T20:31:53.794Z,3.83
2018-12-11T20:34:23.717Z,4.10
2018-12-11T20:36:52.552Z,3.87
2018-12-11T20:39:21.177Z,5.30
2018-12-11T20:41:49.945Z,6.50
2018-12-11T20:44:18.787Z,5.63
2018-12-11T20:46:47.745Z,4.23
2018-12-11T20:49:17.704Z,5.37
2018-12-11T20:51:48.274Z,5.37
2018-12-11T20:54:16.922Z,5.27
2018-12-11T20:56:46.577Z,3.80
2018-12-11T20:59:15.451Z,2.87
2018-12-11T21:01:44.559Z,3.60
2018-12-11T21:04:13.479Z,3.83
2018-12-11T21:06:43.129Z,3.33
2018-12-11T21:09:15.195Z,3.67
2018-12-11T21:11:44.072Z,4.63
2018-12-11T21:14:12.908Z,4.00
2018-12-11T21:16:44.506Z,3.30
2018-12-11T21:19:15.574Z,3.57
2018-12-11T21:21:44.939Z,4.60
2018-12-11T21:24:14.069Z,4.03
2018-12-11T21:26:43.145Z,3.77
2018-12-11T21:29:12.199Z,3.90
2018-12-11T21:31:41.467Z,3.10
2018-12-11T21:34:10.176Z,3.43
2018-12-11T21:36:40.097Z,3.53
2018-12-11T21:39:11.647Z,3.00
2018-12-11T21:41:40.959Z,3.17
2018-12-11T21:44:10.125Z,4.10
2018-12-11T21:46:39.706Z,3.27
2018-12-11T21:49:10.859Z,2.97
2018-12-11T21:51:39.449Z,3.57
2018-12-11T21:54:14.477Z,4.30
2018-12-11T21:56:43.460Z,3.17
2018-12-11T21:59:15.371Z,3.43
2018-12-11T22:01:44.880Z,4.03
2018-12-11T22:04:14.830Z,4.37
2018-12-11T22:06:59.276Z,2.90
2018-12-11T22:09:28.915Z,3.30
2018-12-11T22:12:01.785Z,4.27
2018-12-11T22:14:30.135Z,3.20
2018-12-11T22:17:22.218Z,5.23
2018-12-11T22:19:51.291Z,3.10
2018-12-11T22:22:24.908Z,2.80
2018-12-11T22:24:55.126Z,3.80
2018-12-11T22:27:26.149Z,3.13
2018-12-11T22:30:00.324Z,2.97
2018-12-11T22:32:29.414Z,4.53
2018-12-11T22:35:03.638Z,5.03
2018-12-11T22:37:32.177Z,3.20
2018-12-11T22:40:08.260Z,4.90
2018-12-11T22:42:43.180Z,3.77
2018-12-11T22:45:14.724Z,3.00
2018-12-11T22:47:44.211Z,3.13
2018-12-11T22:50:13.101Z,3.50
2018-12-11T22:52:41.460Z,4.27
2018-12-11T22:55:10.024Z,3.60
2018-12-11T22:57:48.273Z,3.10
2018-12-11T23:00:17.336Z,3.50
2018-12-11T23:02:46.515Z,3.37
2018-12-11T23:05:15.642Z,4.00
2018-12-11T23:07:45.239Z,4.10
2018-12-11T23:10:16.100Z,4.53
2018-12-11T23:12:44.635Z,3.53
2018-12-11T23:15:13.177Z,3.33
2018-12-11T23:17:41.646Z,2.87
2018-12-11T23:20:10.242Z,3.83
2018-12-11T23:22:39.420Z,3.30
2018-12-11T23:25:21.365Z,8.57
2018-12-11T23:27:50.662Z,3.40
2018-12-11T23:30:19.382Z,3.30
2018-12-11T23:32:47.763Z,2.90
2018-12-11T23:35:17.856Z,3.17
2018-12-11T23:37:46.326Z,3.00
2018-12-11T23:40:14.705Z,2.90
2018-12-11T23:42:43.513Z,3.00
2018-12-11T23:45:12.259Z,2.90
2018-12-11T23:47:41.722Z,2.57
2018-12-11T23:50:10.352Z,2.63
2018-12-11T23:52:39.063Z,3.67
2018-12-11T23:55:07.727Z,3.13
2018-12-11T23:57:36.510Z,2.80
